Time;durP1;ratioP1;P1;durP2;ratioP2;P2;SDS_P1;SDS_P2;PMS_P1;PMS_P2;Temp;Humidity;BMP_temperature;BMP_pressure;BME280_temperature;BME280_humidity;BME280_pressure;Samples;Min_cycle;Max_cycle;Signal;HPM_P1;HPM_P2
2021/03/12 00:00:17;;;;;;;61.70;29.73;;;2.80;99.90;;;;;;4425626;32;20158;-75
2021/03/12 00:02:44;;;;;;;62.93;29.80;;;2.90;99.90;;;;;;4426330;32;20150;-72
2021/03/12 00:05:12;;;;;;;64.30;29.87;;;2.90;99.90;;;;;;4425275;32;20239;-75
2021/03/12 00:07:39;;;;;;;60.83;29.50;;;2.90;99.90;;;;;;4425181;32;20551;-76
2021/03/12 00:10:15;;;;;;;59.63;28.47;;;2.90;99.90;;;;;;4426040;32;20148;-75
2021/03/12 00:12:42;;;;;;;61.23;29.10;;;2.90;99.90;;;;;;4425929;32;20405;-75
2021/03/12 00:15:12;;;;;;;63.97;29.37;;;2.90;99.90;;;;;;4425640;32;20588;-75
2021/03/12 00:17:39;;;;;;;55.43;27.87;;;2.90;99.90;;;;;;4424561;32;20182;-75
2021/03/12 00:20:13;;;;;;;59.70;28.63;;;2.90;99.90;;;;;;4423912;32;20167;-75
2021/03/12 00:22:39;;;;;;;64.60;29.13;;;2.90;99.90;;;;;;4424146;32;20194;-75
2021/03/12 00:25:12;;;;;;;59.53;28.93;;;2.90;99.90;;;;;;4422871;32;20198;-75
2021/03/12 00:27:39;;;;;;;60.33;28.63;;;3.00;99.90;;;;;;4423326;32;20271;-77
2021/03/12 00:30:09;;;;;;;59.63;28.53;;;2.90;99.90;;;;;;4421868;32;20206;-75
2021/03/12 00:32:37;;;;;;;60.37;28.60;;;3.00;99.90;;;;;;4422658;32;20228;-75
2021/03/12 00:35:06;;;;;;;61.20;29.23;;;3.00;99.90;;;;;;4410007;32;20190;-75
2021/03/12 00:37:34;;;;;;;60.37;29.07;;;3.00;99.90;;;;;;4422529;32;20686;-75
2021/03/12 00:40:05;;;;;;;58.80;28.03;;;2.90;99.90;;;;;;4422699;32;20476;-75
2021/03/12 00:42:32;;;;;;;63.50;28.63;;;3.00;99.90;;;;;;4410032;32;20487;-75
2021/03/12 00:44:58;;;;;;;57.23;27.90;;;3.00;99.90;;;;;;4425146;32;20517;-75
2021/03/12 00:47:25;;;;;;;61.77;28.77;;;3.00;99.90;;;;;;4425045;32;20186;-75
2021/03/12 00:49:52;;;;;;;63.10;29.03;;;3.00;99.90;;;;;;4424652;32;20212;-75
2021/03/12 00:52:18;;;;;;;60.90;28.83;;;3.00;99.90;;;;;;4424405;32;20186;-75
2021/03/12 00:54:45;;;;;;;59.00;28.77;;;3.00;99.90;;;;;;4426332;32;20178;-75
2021/03/12 00:57:12;;;;;;;58.43;28.33;;;3.10;99.90;;;;;;4424394;32;20531;-75
2021/03/12 00:59:39;;;;;;;59.10;28.73;;;3.00;99.90;;;;;;4425443;32;20159;-75
2021/03/12 01:02:06;;;;;;;63.30;28.63;;;3.00;99.90;;;;;;4425131;32;20408;-75
2021/03/12 01:04:32;;;;;;;62.53;29.10;;;3.10;99.90;;;;;;4425560;32;20152;-75
2021/03/12 01:06:59;;;;;;;56.37;27.23;;;3.10;99.90;;;;;;4425470;32;20231;-75
2021/03/12 01:09:25;;;;;;;60.00;28.50;;;3.10;99.90;;;;;;4425058;32;20214;-75
2021/03/12 01:11:52;;;;;;;59.80;29.57;;;3.10;99.90;;;;;;4423718;32;20150;-75
2021/03/12 01:14:20;;;;;;;57.50;29.40;;;3.10;99.90;;;;;;4425144;32;20235;-75
2021/03/12 01:16:47;;;;;;;59.47;29.17;;;3.10;99.90;;;;;;4425582;32;20162;-75
2021/03/12 01:19:13;;;;;;;61.30;29.40;;;3.10;99.90;;;;;;4425119;32;20208;-76
2021/03/12 01:21:40;;;;;;;60.67;28.73;;;3.10;99.90;;;;;;4425443;32;20139;-75
2021/03/12 01:24:07;;;;;;;57.90;27.70;;;3.10;99.90;;;;;;4424851;32;20199;-75
2021/03/12 01:26:34;;;;;;;60.43;28.70;;;3.10;99.90;;;;;;4426057;32;20161;-76
2021/03/12 01:29:01;;;;;;;60.77;29.17;;;3.20;99.90;;;;;;4425117;32;20151;-76
2021/03/12 01:31:28;;;;;;;59.90;28.93;;;3.20;99.90;;;;;;4425003;32;20131;-75
2021/03/12 01:33:54;;;;;;;63.90;29.30;;;3.10;99.90;;;;;;4424169;32;20399;-75
2021/03/12 01:36:22;;;;;;;61.37;29.67;;;3.10;99.90;;;;;;4424934;32;20179;-76
2021/03/12 01:38:48;;;;;;;58.80;28.43;;;3.20;99.90;;;;;;4424984;32;20259;-75
2021/03/12 01:41:15;;;;;;;59.67;28.30;;;3.20;99.90;;;;;;4424862;32;20426;-75
2021/03/12 01:43:42;;;;;;;59.13;28.43;;;3.30;99.90;;;;;;4424880;32;20147;-75
2021/03/12 01:46:09;;;;;;;58.43;28.80;;;3.30;99.90;;;;;;4424702;32;20250;-76
2021/03/12 01:48:36;;;;;;;55.57;27.53;;;3.30;99.90;;;;;;4424285;32;20162;-75
2021/03/12 01:51:05;;;;;;;57.93;27.60;;;3.30;99.90;;;;;;4424775;32;20528;-76
2021/03/12 01:53:34;;;;;;;55.53;26.50;;;3.40;99.90;;;;;;4424778;32;20143;-76
2021/03/12 01:56:02;;;;;;;54.40;26.93;;;3.50;99.90;;;;;;4424588;32;20162;-75
2021/03/12 01:58:29;;;;;;;55.97;27.40;;;3.50;99.90;;;;;;4426131;32;20180;-76
2021/03/12 02:00:56;;;;;;;54.50;26.40;;;3.50;99.90;;;;;;4424646;32;20158;-75
2021/03/12 02:03:27;;;;;;;56.93;26.77;;;3.60;99.90;;;;;;4424692;32;20136;-75
2021/03/12 02:05:55;;;;;;;54.87;26.47;;;3.60;99.90;;;;;;4424554;32;20151;-76
2021/03/12 02:08:21;;;;;;;55.43;26.73;;;3.70;99.90;;;;;;4424894;32;20139;-76
2021/03/12 02:10:49;;;;;;;53.83;26.47;;;3.70;99.90;;;;;;4424475;32;20139;-76
2021/03/12 02:13:31;;;;;;;53.87;26.23;;;3.70;99.90;;;;;;4425221;32;20426;-75
2021/03/12 02:16:04;;;;;;;54.90;25.73;;;3.70;99.90;;;;;;4424291;32;20234;-75
2021/03/12 02:18:44;;;;;;;49.93;25.43;;;3.70;99.90;;;;;;4424783;32;20137;-75
2021/03/12 02:21:28;;;;;;;54.10;25.20;;;3.70;99.90;;;;;;4424786;32;20442;-75
2021/03/12 02:24:10;;;;;;;48.63;24.47;;;3.80;99.90;;;;;;4424333;32;20178;-75
2021/03/12 02:26:42;;;;;;;49.50;24.80;;;3.80;99.90;;;;;;4424454;32;20139;-75
2021/03/12 02:29:17;;;;;;;50.00;23.77;;;3.70;99.90;;;;;;4424463;32;20259;-75
2021/03/12 02:31:44;;;;;;;49.77;24.37;;;3.80;99.90;;;;;;4424678;32;20202;-75
2021/03/12 02:34:13;;;;;;;50.23;24.27;;;3.80;99.90;;;;;;4424405;32;20147;-75
2021/03/12 02:36:45;;;;;;;52.00;24.67;;;3.80;99.90;;;;;;4424398;32;20488;-75
2021/03/12 02:39:14;;;;;;;50.00;23.67;;;3.90;99.90;;;;;;4425827;32;20158;-75
2021/03/12 02:41:43;;;;;;;46.93;23.23;;;3.90;99.90;;;;;;4425430;32;20206;-75
2021/03/12 02:44:11;;;;;;;50.27;24.00;;;3.90;99.90;;;;;;4424232;32;20182;-75
2021/03/12 02:46:39;;;;;;;45.67;22.97;;;3.90;99.90;;;;;;4424194;32;20134;-75
2021/03/12 02:49:07;;;;;;;43.90;22.30;;;4.00;99.90;;;;;;4423610;32;20151;-75
2021/03/12 02:51:34;;;;;;;46.83;22.97;;;4.00;99.90;;;;;;4424163;32;20143;-76
2021/03/12 02:54:02;;;;;;;43.47;22.17;;;4.00;99.90;;;;;;4424212;32;20141;-76
2021/03/12 02:56:29;;;;;;;43.07;22.27;;;4.00;99.90;;;;;;4424503;32;20253;-76
2021/03/12 02:58:56;;;;;;;43.27;22.67;;;4.00;99.90;;;;;;4423641;32;20148;-76
2021/03/12 03:01:25;;;;;;;41.00;21.67;;;4.00;99.90;;;;;;4424308;32;20194;-76
2021/03/12 03:03:53;;;;;;;44.67;22.73;;;4.00;99.90;;;;;;4424431;32;20453;-76
2021/03/12 03:06:20;;;;;;;44.47;22.20;;;4.10;99.90;;;;;;4424018;32;20166;-77
2021/03/12 03:08:47;;;;;;;43.43;22.00;;;4.00;99.90;;;;;;4423553;32;20436;-77
2021/03/12 03:11:15;;;;;;;41.13;21.37;;;4.10;99.90;;;;;;4424055;32;20134;-76
2021/03/12 03:13:57;;;;;;;38.33;20.53;;;4.10;99.90;;;;;;4424158;32;20350;-77
2021/03/12 03:16:27;;;;;;;43.20;21.63;;;4.10;99.90;;;;;;4424081;32;20151;-77
2021/03/12 03:18:56;;;;;;;42.57;21.30;;;4.20;99.90;;;;;;4423571;32;20286;-77
2021/03/12 03:21:22;;;;;;;41.27;20.90;;;4.10;99.90;;;;;;4424111;32;20151;-77
2021/03/12 03:23:49;;;;;;;43.37;21.33;;;4.10;99.90;;;;;;4424697;32;20520;-77
2021/03/12 03:26:15;;;;;;;38.97;20.90;;;4.20;99.90;;;;;;4423907;32;20180;-77
2021/03/12 03:28:42;;;;;;;37.30;19.57;;;4.10;99.90;;;;;;4426362;32;20144;-76
2021/03/12 03:31:09;;;;;;;38.73;21.00;;;4.10;99.90;;;;;;4426929;32;20201;-77
2021/03/12 03:33:35;;;;;;;41.70;20.13;;;4.10;99.90;;;;;;4426750;32;20142;-77
2021/03/12 03:36:03;;;;;;;39.50;20.33;;;4.10;99.90;;;;;;4426750;32;20162;-77
2021/03/12 03:38:31;;;;;;;38.47;20.10;;;4.10;99.90;;;;;;4428161;32;20427;-77
2021/03/12 03:41:01;;;;;;;39.23;20.13;;;4.10;99.90;;;;;;4426657;32;20194;-77
2021/03/12 03:43:29;;;;;;;39.97;19.73;;;4.10;99.90;;;;;;4426584;32;20552;-76
2021/03/12 03:46:00;;;;;;;39.57;19.50;;;4.10;99.90;;;;;;4426977;32;20147;-76
2021/03/12 03:48:28;;;;;;;38.67;20.10;;;4.10;99.90;;;;;;4427566;32;20186;-76
2021/03/12 03:50:56;;;;;;;38.70;19.73;;;4.00;99.90;;;;;;4426302;32;20194;-76
2021/03/12 03:53:23;;;;;;;38.07;20.03;;;4.00;99.90;;;;;;4426766;32;20169;-76
2021/03/12 03:55:51;;;;;;;39.73;19.17;;;4.00;99.90;;;;;;4427049;32;20505;-76
2021/03/12 03:58:17;;;;;;;35.17;18.90;;;4.10;99.90;;;;;;4427223;32;20148;-76
2021/03/12 04:00:45;;;;;;;39.93;19.83;;;4.00;99.90;;;;;;4426455;32;20518;-76
2021/03/12 04:03:13;;;;;;;38.33;19.17;;;4.00;99.90;;;;;;4427864;32;20144;-76
2021/03/12 04:05:40;;;;;;;35.67;19.20;;;4.00;99.90;;;;;;4427676;32;20199;-77
2021/03/12 04:08:08;;;;;;;38.87;20.23;;;4.00;99.90;;;;;;4426228;32;20161;-76
2021/03/12 04:10:34;;;;;;;38.03;19.20;;;3.90;99.90;;;;;;4427973;32;20159;-77
2021/03/12 04:13:02;;;;;;;34.43;18.97;;;3.90;99.90;;;;;;4426440;32;20157;-76
2021/03/12 04:15:29;;;;;;;36.07;18.80;;;3.90;99.90;;;;;;4426638;32;20168;-77
2021/03/12 04:17:56;;;;;;;40.20;19.70;;;3.90;99.90;;;;;;4426172;32;20203;-77
2021/03/12 04:20:23;;;;;;;42.40;19.40;;;3.90;99.90;;;;;;4426276;32;20406;-77
2021/03/12 04:22:50;;;;;;;38.47;19.40;;;4.00;99.90;;;;;;4426069;32;20187;-77
2021/03/12 04:25:18;;;;;;;39.87;19.23;;;4.00;99.90;;;;;;4426521;32;20485;-77
2021/03/12 04:27:44;;;;;;;35.30;18.43;;;4.00;99.90;;;;;;4426021;32;20166;-77
2021/03/12 04:30:12;;;;;;;39.80;19.50;;;4.00;99.90;;;;;;4426134;32;20462;-77
2021/03/12 04:32:39;;;;;;;37.13;18.93;;;4.00;99.90;;;;;;4426397;32;20226;-77
2021/03/12 04:35:08;;;;;;;35.73;18.67;;;4.10;99.90;;;;;;4426182;32;20160;-77
2021/03/12 04:37:36;;;;;;;36.37;18.23;;;4.10;99.90;;;;;;4426692;32;20191;-77
2021/03/12 04:40:07;;;;;;;35.60;18.57;;;4.10;99.90;;;;;;4426483;32;20144;-78
2021/03/12 04:42:35;;;;;;;37.67;18.37;;;4.10;99.90;;;;;;4427308;32;20140;-78
2021/03/12 04:45:07;;;;;;;34.17;18.77;;;4.10;99.90;;;;;;4425682;32;20156;-78
2021/03/12 04:47:34;;;;;;;37.63;18.40;;;4.10;99.90;;;;;;4425701;32;20148;-78
2021/03/12 04:50:04;;;;;;;33.90;18.00;;;4.10;99.90;;;;;;4426843;32;20164;-78
2021/03/12 04:52:30;;;;;;;36.00;18.63;;;4.20;99.90;;;;;;4425437;32;20175;-78
2021/03/12 04:54:58;;;;;;;31.67;17.07;;;4.20;99.90;;;;;;4426661;32;20169;-79
2021/03/12 04:57:24;;;;;;;37.07;18.53;;;4.30;99.90;;;;;;4425827;32;20503;-79
2021/03/12 04:59:55;;;;;;;34.93;17.63;;;4.30;99.90;;;;;;4425527;32;20147;-77
2021/03/12 05:02:21;;;;;;;35.00;18.10;;;4.30;99.90;;;;;;4425015;32;20148;-77
2021/03/12 05:04:50;;;;;;;32.17;18.07;;;4.30;99.90;;;;;;4426745;32;20196;-77
2021/03/12 05:07:21;;;;;;;34.30;18.73;;;4.30;99.90;;;;;;4425397;32;20214;-77
2021/03/12 05:09:48;;;;;;;33.17;18.00;;;4.30;99.90;;;;;;4425325;32;20147;-76
2021/03/12 05:12:15;;;;;;;34.50;17.27;;;4.40;99.90;;;;;;4425287;32;20152;-77
2021/03/12 05:14:41;;;;;;;34.90;17.27;;;4.40;99.90;;;;;;4426057;32;20197;-77
2021/03/12 05:17:08;;;;;;;31.10;16.20;;;4.40;99.90;;;;;;4426070;32;20137;-77
2021/03/12 05:19:35;;;;;;;34.13;17.03;;;4.50;99.90;;;;;;4425202;32;20148;-76
2021/03/12 05:22:02;;;;;;;33.73;16.63;;;4.50;99.90;;;;;;4425611;32;20143;-77
2021/03/12 05:24:28;;;;;;;31.10;16.33;;;4.50;99.90;;;;;;4424920;32;20185;-76
2021/03/12 05:26:55;;;;;;;27.33;15.47;;;4.60;99.90;;;;;;4425380;32;20198;-76
2021/03/12 05:29:21;;;;;;;30.27;15.77;;;4.70;99.90;;;;;;4425040;32;20138;-76
2021/03/12 05:31:48;;;;;;;31.17;16.07;;;4.70;99.90;;;;;;4426493;32;20213;-76
2021/03/12 05:34:14;;;;;;;27.73;15.40;;;4.70;99.90;;;;;;4424933;32;20152;-76
2021/03/12 05:36:41;;;;;;;30.00;14.50;;;4.80;99.90;;;;;;4426394;32;20155;-76
2021/03/12 05:39:08;;;;;;;29.93;14.77;;;4.80;99.90;;;;;;4424826;32;20421;-76
2021/03/12 05:41:37;;;;;;;28.00;14.77;;;4.80;99.90;;;;;;4423785;32;20409;-75
2021/03/12 05:44:06;;;;;;;26.03;13.63;;;4.80;99.90;;;;;;4424837;32;20489;-75
2021/03/12 05:46:34;;;;;;;27.63;13.87;;;4.90;99.90;;;;;;4425277;32;20154;-75
2021/03/12 05:49:03;;;;;;;25.40;13.77;;;4.90;99.90;;;;;;4424414;32;20143;-76
2021/03/12 05:51:32;;;;;;;24.50;12.97;;;4.90;99.90;;;;;;4425016;32;20503;-75
2021/03/12 05:54:01;;;;;;;21.90;11.83;;;4.90;99.90;;;;;;4424713;32;20164;-75
2021/03/12 05:56:27;;;;;;;19.67;11.30;;;5.00;99.90;;;;;;4424845;32;20143;-75
2021/03/12 05:58:54;;;;;;;22.60;12.00;;;5.10;99.90;;;;;;4424730;32;20162;-75
2021/03/12 06:01:21;;;;;;;21.57;11.97;;;5.20;99.90;;;;;;4423789;32;20154;-75
2021/03/12 06:03:47;;;;;;;24.67;11.97;;;5.20;99.90;;;;;;4424576;32;20152;-75
2021/03/12 06:06:14;;;;;;;22.53;11.23;;;5.20;99.90;;;;;;4424213;32;20578;-75
2021/03/12 06:08:41;;;;;;;21.67;11.20;;;5.30;99.90;;;;;;4424630;32;20154;-75
2021/03/12 06:11:07;;;;;;;22.07;11.47;;;5.30;99.90;;;;;;4424188;32;20158;-75
2021/03/12 06:13:52;;;;;;;22.23;11.17;;;5.20;99.90;;;;;;4423614;32;20199;-76
2021/03/12 06:16:29;;;;;;;22.27;11.47;;;5.20;99.90;;;;;;4424500;32;20132;-76
2021/03/12 06:19:12;;;;;;;26.07;11.40;;;5.20;99.90;;;;;;4425929;32;20233;-76
2021/03/12 06:21:41;;;;;;;22.43;11.20;;;5.10;99.90;;;;;;4424114;32;20224;-77
2021/03/12 06:24:28;;;;;;;22.00;11.10;;;5.10;99.90;;;;;;4422802;32;20199;-77
2021/03/12 06:26:55;;;;;;;22.33;10.63;;;5.10;99.90;;;;;;4425376;32;20140;-76
2021/03/12 06:29:37;;;;;;;24.23;11.67;;;5.00;99.90;;;;;;4425221;32;20144;-77
2021/03/12 06:32:05;;;;;;;20.70;10.83;;;5.00;99.90;;;;;;4426009;32;20215;-77
2021/03/12 06:34:33;;;;;;;21.80;11.87;;;5.00;99.90;;;;;;4423090;32;20155;-76
2021/03/12 06:37:20;;;;;;;22.00;11.63;;;4.90;99.90;;;;;;4423089;32;20182;-76
2021/03/12 06:39:47;;;;;;;21.17;11.10;;;5.00;99.90;;;;;;4424029;32;20218;-77
2021/03/12 06:42:14;;;;;;;23.93;11.93;;;5.00;99.90;;;;;;4424392;32;20202;-76
2021/03/12 06:44:40;;;;;;;23.87;12.07;;;5.00;99.90;;;;;;4423757;32;20195;-76
2021/03/12 06:47:07;;;;;;;26.97;12.67;;;4.90;99.90;;;;;;4422120;32;20161;-77
2021/03/12 06:49:55;;;;;;;25.03;13.00;;;4.90;99.90;;;;;;4423153;32;20151;-75
2021/03/12 06:52:34;;;;;;;24.90;13.27;;;4.90;99.90;;;;;;4423033;32;20216;-76
2021/03/12 06:55:02;;;;;;;26.17;14.30;;;4.90;99.90;;;;;;4424278;32;20152;-76
2021/03/12 06:57:29;;;;;;;29.23;14.57;;;4.90;99.90;;;;;;4423806;32;20174;-75
2021/03/12 07:00:09;;;;;;;32.07;14.90;;;4.90;99.90;;;;;;4423332;32;20208;-76
2021/03/12 07:02:37;;;;;;;31.80;15.63;;;4.90;99.90;;;;;;4426354;32;20156;-75
2021/03/12 07:05:05;;;;;;;32.10;16.50;;;5.00;99.90;;;;;;4427390;32;20148;-75
2021/03/12 07:07:40;;;;;;;27.30;14.90;;;5.00;99.90;;;;;;4428173;32;20181;-76
2021/03/12 07:10:08;;;;;;;28.27;15.57;;;5.00;99.90;;;;;;4427068;32;20147;-75
2021/03/12 07:12:44;;;;;;;33.73;16.67;;;5.00;99.90;;;;;;4427178;32;20178;-75
2021/03/12 07:15:13;;;;;;;31.90;16.73;;;5.00;99.90;;;;;;4428467;32;20489;-76
2021/03/12 07:17:40;;;;;;;29.60;16.00;;;4.90;99.90;;;;;;4426911;32;20171;-76
2021/03/12 07:20:09;;;;;;;31.27;16.10;;;4.90;99.90;;;;;;4426745;32;20372;-77
2021/03/12 07:22:37;;;;;;;30.93;15.90;;;5.00;99.90;;;;;;4426773;32;20149;-77
2021/03/12 07:25:06;;;;;;;30.70;15.70;;;5.00;99.90;;;;;;4425972;32;20460;-76
2021/03/12 07:27:34;;;;;;;32.70;15.90;;;5.00;99.90;;;;;;4425440;32;20453;-76
2021/03/12 07:30:04;;;;;;;32.90;16.70;;;5.00;99.90;;;;;;4426722;32;20209;-76
2021/03/12 07:32:33;;;;;;;30.00;15.83;;;5.10;99.90;;;;;;4426646;32;20157;-76
2021/03/12 07:35:01;;;;;;;32.20;15.63;;;5.10;99.90;;;;;;4426625;32;20175;-76
2021/03/12 07:37:30;;;;;;;29.40;16.33;;;5.10;99.90;;;;;;4425957;32;20147;-75
2021/03/12 07:39:58;;;;;;;29.07;16.00;;;5.10;99.90;;;;;;4428019;32;20473;-74
2021/03/12 07:42:26;;;;;;;29.13;15.53;;;5.00;99.90;;;;;;4425760;32;20162;-75
2021/03/12 07:44:53;;;;;;;32.77;15.83;;;5.00;99.90;;;;;;4424304;32;20141;-75
2021/03/12 07:47:26;;;;;;;32.17;16.17;;;5.10;99.90;;;;;;4427165;32;20167;-73
2021/03/12 07:49:53;;;;;;;32.97;16.30;;;5.10;99.90;;;;;;4427658;32;20171;-74
2021/03/12 07:52:49;;;;;;;31.87;15.80;;;5.20;99.90;;;;;;4425222;32;20527;-74
2021/03/12 07:55:39;;;;;;;25.97;14.20;;;5.20;99.90;;;;;;4426703;32;20177;-75
2021/03/12 07:58:07;;;;;;;26.93;14.43;;;5.30;99.90;;;;;;4415981;32;20182;-74
2021/03/12 08:00:52;;;;;;;26.13;13.50;;;5.40;99.90;;;;;;4426389;32;20145;-74
2021/03/12 08:03:30;;;;;;;26.23;13.43;;;5.40;99.90;;;;;;4426422;32;20223;-76
2021/03/12 08:05:56;;;;;;;26.67;13.40;;;5.50;99.90;;;;;;4425730;32;20162;-75
2021/03/12 08:08:41;;;;;;;23.17;12.57;;;5.50;99.90;;;;;;4425720;32;20156;-75
2021/03/12 08:11:32;;;;;;;26.40;13.10;;;5.60;99.90;;;;;;4426636;32;20417;-76
2021/03/12 08:14:19;;;;;;;26.87;12.77;;;5.60;99.90;;;;;;4426064;32;20181;-74
2021/03/12 08:16:57;;;;;;;23.33;11.77;;;5.60;99.90;;;;;;4425645;32;20393;-75
2021/03/12 08:19:34;;;;;;;22.80;12.30;;;5.70;99.90;;;;;;4425276;32;20162;-71
2021/03/12 08:22:27;;;;;;;23.00;12.63;;;5.70;99.90;;;;;;4426628;32;20194;-71
2021/03/12 08:24:56;;;;;;;23.07;12.07;;;5.80;99.90;;;;;;4425223;32;20391;-71
2021/03/12 08:27:46;;;;;;;20.33;11.77;;;5.90;99.90;;;;;;4425362;32;20179;-72
2021/03/12 08:30:25;;;;;;;20.50;10.70;;;6.00;99.90;;;;;;4426120;32;20222;-72
2021/03/12 08:32:53;;;;;;;22.93;11.30;;;6.20;99.90;;;;;;4425781;32;20201;-71
2021/03/12 08:35:44;;;;;;;21.33;11.23;;;6.30;99.90;;;;;;4426632;32;20226;-74
2021/03/12 08:38:10;;;;;;;19.07;9.67;;;6.40;99.90;;;;;;4426604;32;20450;-69
2021/03/12 08:40:42;;;;;;;20.40;11.03;;;6.40;99.90;;;;;;4425550;32;20590;-71
2021/03/12 08:43:13;;;;;;;19.67;11.07;;;6.40;99.90;;;;;;4425050;32;20168;-72
2021/03/12 08:45:45;;;;;;;19.87;10.73;;;6.40;99.90;;;;;;4425937;32;20268;-70
2021/03/12 08:48:20;;;;;;;17.97;10.53;;;6.60;99.90;;;;;;4425689;32;20183;-72
2021/03/12 08:50:58;;;;;;;19.03;10.43;;;6.60;99.90;;;;;;4425157;32;20469;-70
2021/03/12 08:53:27;;;;;;;19.87;10.83;;;6.90;99.90;;;;;;4426778;32;20195;-70
2021/03/12 08:55:56;;;;;;;20.20;10.10;;;6.90;99.90;;;;;;4426580;32;20181;-70
2021/03/12 08:58:27;;;;;;;17.57;10.73;;;6.90;99.90;;;;;;4425157;32;20173;-70
2021/03/12 09:00:55;;;;;;;19.37;10.30;;;6.90;99.90;;;;;;4426971;32;20147;-75
2021/03/12 09:03:23;;;;;;;17.77;9.57;;;6.90;99.90;;;;;;4425406;32;20378;-74
2021/03/12 09:05:54;;;;;;;13.27;8.47;;;6.90;99.90;;;;;;4423019;32;20232;-72
2021/03/12 09:08:25;;;;;;;18.40;9.93;;;6.90;99.90;;;;;;4425684;32;20206;-73
2021/03/12 09:10:52;;;;;;;16.07;9.47;;;7.10;99.90;;;;;;4424618;32;20434;-73
2021/03/12 09:13:29;;;;;;;13.83;8.80;;;7.10;99.90;;;;;;4426194;32;20200;-74
2021/03/12 09:15:56;;;;;;;13.93;8.93;;;7.10;99.90;;;;;;4424817;32;20189;-74
2021/03/12 09:18:36;;;;;;;14.17;8.20;;;7.10;99.90;;;;;;4426756;32;20157;-71
2021/03/12 09:21:06;;;;;;;14.97;9.30;;;7.10;99.90;;;;;;4425052;32;20153;-71
2021/03/12 09:23:47;;;;;;;17.07;8.67;;;7.20;99.90;;;;;;4424425;32;20150;-72
2021/03/12 09:26:15;;;;;;;10.90;7.87;;;7.20;99.90;;;;;;4423787;32;20217;-74
2021/03/12 09:28:44;;;;;;;13.23;8.23;;;7.20;99.90;;;;;;4424472;32;20221;-71
2021/03/12 09:31:13;;;;;;;13.23;7.30;;;7.20;99.90;;;;;;4423878;32;20194;-72
2021/03/12 09:33:45;;;;;;;11.57;6.97;;;7.20;99.90;;;;;;4425508;32;20146;-74
2021/03/12 09:36:28;;;;;;;12.40;6.50;;;7.20;99.90;;;;;;4425295;32;20157;-74
2021/03/12 09:39:18;;;;;;;12.73;6.90;;;7.20;99.90;;;;;;4425328;32;20179;-71
2021/03/12 09:41:59;;;;;;;11.80;6.30;;;7.20;99.90;;;;;;4424209;32;20154;-74
2021/03/12 09:44:27;;;;;;;13.07;7.03;;;7.30;99.90;;;;;;4423585;32;20169;-71
2021/03/12 09:46:59;;;;;;;11.20;6.77;;;7.30;99.90;;;;;;4423407;32;20230;-71
2021/03/12 09:49:39;;;;;;;10.23;6.73;;;7.40;99.90;;;;;;4425657;32;20539;-72
2021/03/12 09:52:16;;;;;;;12.10;7.00;;;7.40;99.90;;;;;;4424691;32;20146;-71
2021/03/12 09:54:44;;;;;;;11.73;6.83;;;7.50;99.90;;;;;;4423918;32;20157;-70
2021/03/12 09:57:16;;;;;;;10.93;7.17;;;7.40;99.90;;;;;;4424086;32;20238;-71
2021/03/12 09:59:51;;;;;;;10.93;6.83;;;7.60;99.90;;;;;;4423913;32;20401;-71
2021/03/12 10:02:19;;;;;;;12.23;6.60;;;7.60;99.90;;;;;;4424080;32;20146;-70
2021/03/12 10:05:04;;;;;;;10.83;6.80;;;7.60;99.90;;;;;;4423324;32;20171;-70
2021/03/12 10:07:42;;;;;;;12.50;7.23;;;7.50;99.90;;;;;;4423928;32;20235;-71
2021/03/12 10:10:16;;;;;;;14.13;8.17;;;7.40;99.90;;;;;;4423964;32;20221;-70
2021/03/12 10:12:44;;;;;;;13.40;8.30;;;7.40;99.90;;;;;;4424798;32;20171;-74
2021/03/12 10:15:35;;;;;;;13.77;8.17;;;7.20;99.90;;;;;;4424110;32;20200;-73
2021/03/12 10:18:03;;;;;;;14.13;7.70;;;7.20;99.90;;;;;;4424975;32;20202;-74
2021/03/12 10:20:35;;;;;;;15.40;8.10;;;7.30;99.90;;;;;;4424827;32;20190;-73
2021/03/12 10:23:06;;;;;;;12.70;8.40;;;7.30;99.90;;;;;;4423107;32;20131;-74
2021/03/12 10:25:39;;;;;;;14.23;8.67;;;7.20;99.90;;;;;;4424197;32;20154;-73
2021/03/12 10:28:08;;;;;;;13.77;8.07;;;7.20;99.90;;;;;;4424884;32;20173;-74
2021/03/12 10:30:38;;;;;;;12.97;8.10;;;7.10;99.90;;;;;;4424004;32;20468;-72
2021/03/12 10:33:08;;;;;;;16.53;9.03;;;7.10;99.90;;;;;;4425339;32;20151;-74
2021/03/12 10:35:52;;;;;;;10.33;5.77;;;7.00;99.90;;;;;;4425591;32;20447;-73
2021/03/12 10:38:29;;;;;;;9.57;4.90;;;6.30;99.90;;;;;;4423187;32;20566;-71
2021/03/12 10:41:01;;;;;;;5.50;3.43;;;6.20;99.90;;;;;;4424333;32;20199;-72
2021/03/12 10:43:33;;;;;;;6.13;3.10;;;5.70;99.90;;;;;;4424238;32;20157;-73
2021/03/12 10:46:02;;;;;;;4.23;2.80;;;5.50;99.90;;;;;;4423739;32;20228;-71
2021/03/12 10:48:41;;;;;;;4.90;2.80;;;5.50;99.90;;;;;;4425078;32;20153;-71
2021/03/12 10:51:09;;;;;;;5.97;3.27;;;5.40;99.90;;;;;;4424821;32;20220;-73
2021/03/12 10:53:56;;;;;;;5.43;3.13;;;5.20;99.90;;;;;;4419356;32;20192;-72
2021/03/12 10:56:24;;;;;;;7.83;3.40;;;5.00;99.90;;;;;;4421281;32;20191;-73
2021/03/12 10:58:53;;;;;;;6.53;3.40;;;4.90;99.90;;;;;;4422804;32;20151;-72
2021/03/12 11:01:26;;;;;;;5.47;3.60;;;5.00;99.90;;;;;;4423338;32;20165;-73
2021/03/12 11:03:55;;;;;;;7.10;3.93;;;4.90;99.90;;;;;;4423720;32;20497;-73
2021/03/12 11:06:26;;;;;;;7.97;4.20;;;5.00;99.90;;;;;;4423794;32;20193;-73
2021/03/12 11:08:53;;;;;;;9.50;4.33;;;5.10;99.90;;;;;;4423961;32;20559;-73
2021/03/12 11:11:21;;;;;;;10.50;4.10;;;5.30;99.90;;;;;;4422766;32;20196;-74
2021/03/12 11:13:49;;;;;;;7.73;4.63;;;5.40;99.90;;;;;;4423805;32;20175;-72
2021/03/12 11:16:16;;;;;;;9.50;5.00;;;5.50;99.90;;;;;;4425084;32;20452;-72
2021/03/12 11:18:43;;;;;;;8.23;4.60;;;5.90;99.90;;;;;;4423507;32;20160;-72
2021/03/12 11:21:12;;;;;;;9.77;4.70;;;6.50;99.90;;;;;;4423028;32;20152;-72
2021/03/12 11:23:45;;;;;;;10.47;4.70;;;6.90;99.90;;;;;;4424296;32;20221;-72
2021/03/12 11:26:13;;;;;;;11.83;4.70;;;7.20;99.90;;;;;;4422669;32;20182;-74
2021/03/12 11:28:41;;;;;;;11.73;5.23;;;7.60;99.90;;;;;;4424496;32;20190;-72
2021/03/12 11:31:08;;;;;;;9.93;4.43;;;8.00;99.90;;;;;;4423002;32;20212;-73
2021/03/12 11:33:35;;;;;;;9.37;4.60;;;8.30;99.90;;;;;;4423826;32;20540;-74
2021/03/12 11:36:04;;;;;;;9.37;5.30;;;8.50;99.90;;;;;;4423607;32;20479;-72
2021/03/12 11:38:31;;;;;;;10.77;5.10;;;8.80;99.90;;;;;;4423696;32;20175;-73
2021/03/12 11:40:58;;;;;;;8.97;4.97;;;9.40;99.90;;;;;;4425292;32;20170;-75
2021/03/12 11:43:26;;;;;;;12.27;5.47;;;9.60;99.90;;;;;;4423799;32;20131;-76
2021/03/12 11:45:53;;;;;;;8.77;5.40;;;9.20;99.90;;;;;;4424047;32;20176;-75
2021/03/12 11:48:21;;;;;;;8.87;5.37;;;9.00;99.90;;;;;;4425528;32;20197;-72
2021/03/12 11:50:50;;;;;;;10.00;5.00;;;9.00;99.90;;;;;;4425723;32;20508;-74
2021/03/12 11:53:17;;;;;;;8.80;5.10;;;8.70;99.90;;;;;;4425713;32;20426;-74
2021/03/12 11:55:43;;;;;;;9.30;5.60;;;8.50;99.90;;;;;;4426492;32;20194;-73
2021/03/12 11:58:10;;;;;;;8.30;5.93;;;8.40;99.90;;;;;;4426528;32;20151;-73
2021/03/12 12:00:37;;;;;;;9.13;5.83;;;8.20;99.90;;;;;;4426012;32;20492;-73
2021/03/12 12:03:04;;;;;;;13.00;5.80;;;8.20;99.90;;;;;;4426202;32;20194;-74
2021/03/12 12:05:31;;;;;;;11.17;5.73;;;8.20;99.90;;;;;;4425860;32;20181;-73
2021/03/12 12:07:58;;;;;;;13.80;6.30;;;8.00;99.90;;;;;;4427596;32;20196;-68
2021/03/12 12:10:25;;;;;;;11.57;5.80;;;8.10;99.90;;;;;;4427644;32;20158;-70
2021/03/12 12:12:56;;;;;;;10.43;5.87;;;8.30;99.90;;;;;;4427482;32;20139;-71
2021/03/12 12:15:26;;;;;;;10.63;6.03;;;8.70;99.90;;;;;;4426614;32;20169;-71
2021/03/12 12:17:59;;;;;;;11.50;5.90;;;9.70;99.90;;;;;;4427165;32;20188;-71
2021/03/12 12:20:26;;;;;;;10.47;5.60;;;9.90;99.90;;;;;;4425973;32;20166;-70
2021/03/12 12:22:53;;;;;;;9.23;5.70;;;9.70;99.90;;;;;;4426286;32;20450;-70
2021/03/12 12:25:19;;;;;;;12.67;6.60;;;9.20;99.90;;;;;;4426156;32;20511;-70
2021/03/12 12:27:46;;;;;;;13.43;6.17;;;8.90;99.90;;;;;;4424343;32;20206;-69
2021/03/12 12:30:13;;;;;;;12.40;6.27;;;8.70;99.90;;;;;;4427340;32;20206;-69
2021/03/12 12:32:43;;;;;;;10.67;6.33;;;8.70;99.90;;;;;;4413098;32;20155;-71
2021/03/12 12:35:11;;;;;;;10.47;6.10;;;8.50;99.90;;;;;;4426366;32;20241;-71
2021/03/12 12:37:38;;;;;;;12.53;6.23;;;8.40;99.90;;;;;;4424614;32;20193;-70
2021/03/12 12:40:07;;;;;;;15.17;6.50;;;8.40;99.90;;;;;;4426844;32;20181;-72
2021/03/12 12:42:34;;;;;;;11.00;6.07;;;8.40;99.90;;;;;;4426435;32;20186;-70
2021/03/12 12:45:03;;;;;;;12.57;6.57;;;8.30;99.90;;;;;;4425534;32;20403;-71
2021/03/12 12:47:29;;;;;;;9.87;5.13;;;8.10;99.90;;;;;;4425792;32;20236;-71
2021/03/12 12:49:56;;;;;;;10.00;4.77;;;7.90;99.90;;;;;;4426349;32;20170;-71
2021/03/12 12:52:26;;;;;;;7.33;4.70;;;8.60;99.90;;;;;;4410587;32;20162;-71
2021/03/12 12:54:53;;;;;;;8.07;4.80;;;9.60;99.90;;;;;;4425118;32;20170;-72